Time;durP1;ratioP1;P1;durP2;ratioP2;P2;SDS_P1;SDS_P2;PMS_P1;PMS_P2;Temp;Humidity;BMP_temperature;BMP_pressure;BME280_temperature;BME280_humidity;BME280_pressure;Samples;Min_cycle;Max_cycle;Signal;HPM_P1;HPM_P2
2021/12/15 00:02:11;;;;;;;48.88;19.92;;;;;;;;;;5055629;28;20017;-96
2021/12/15 00:04:37;;;;;;;52.50;19.97;;;;;;;;;;5054538;28;20387;-96
2021/12/15 00:07:02;;;;;;;52.17;19.97;;;;;;;;;;5054451;28;20021;-96
2021/12/15 00:09:29;;;;;;;55.43;20.93;;;;;;;;;;5085227;28;20057;-96
2021/12/15 00:11:54;;;;;;;56.47;19.13;;;;;;;;;;5054751;28;20047;-96
2021/12/15 00:14:20;;;;;;;57.20;19.80;;;;;;;;;;5054799;28;20527;-96
2021/12/15 00:16:46;;;;;;;51.27;19.40;;;;;;;;;;5054537;28;20074;-96
2021/12/15 00:19:11;;;;;;;51.77;19.20;;;;;;;;;;5054329;28;20020;-96
2021/12/15 00:21:37;;;;;;;47.40;18.20;;;;;;;;;;5088827;28;20028;-96
2021/12/15 00:24:03;;;;;;;54.72;19.98;;;;;;;;;;5057478;28;20021;-96
2021/12/15 00:26:29;;;;;;;45.78;19.23;;;;;;;;;;5055539;28;20029;-96
2021/12/15 00:28:54;;;;;;;49.47;19.80;;;;;;;;;;5055438;28;20486;-96
2021/12/15 00:31:20;;;;;;;53.08;20.25;;;;;;;;;;5054812;28;20057;-96
2021/12/15 00:33:45;;;;;;;55.63;20.27;;;;;;;;;;5054262;28;20071;-96
2021/12/15 00:36:12;;;;;;;45.20;17.20;;;;;;;;;;5054545;28;20399;-96
2021/12/15 00:38:38;;;;;;;56.43;18.27;;;;;;;;;;5055064;28;20033;-95
2021/12/15 00:41:04;;;;;;;55.33;19.88;;;;;;;;;;5055300;28;20021;-96
2021/12/15 00:43:30;;;;;;;57.35;19.83;;;;;;;;;;5054550;28;20057;-96
2021/12/15 00:45:55;;;;;;;45.05;18.15;;;;;;;;;;5054906;28;20039;-96
2021/12/15 00:48:20;;;;;;;50.85;19.08;;;;;;;;;;5055839;28;20032;-95
2021/12/15 00:50:46;;;;;;;49.33;17.40;;;;;;;;;;5055845;28;20055;-96
2021/12/15 00:53:12;;;;;;;51.27;17.77;;;;;;;;;;5055489;28;20024;-96
2021/12/15 00:55:37;;;;;;;56.20;18.45;;;;;;;;;;5057253;28;20490;-96
2021/12/15 00:58:03;;;;;;;49.28;17.98;;;;;;;;;;5058349;28;20411;-96
2021/12/15 01:00:34;;;;;;;55.28;17.90;;;;;;;;;;5057079;28;20027;-96
2021/12/15 01:03:00;;;;;;;54.40;18.07;;;;;;;;;;5056086;28;20028;-96
2021/12/15 01:05:27;;;;;;;50.97;18.13;;;;;;;;;;5056000;28;20029;-96
2021/12/15 01:07:52;;;;;;;54.63;18.58;;;;;;;;;;5055968;28;20033;-96
2021/12/15 01:10:24;;;;;;;51.83;17.92;;;;;;;;;;5056117;28;20029;-96
2021/12/15 01:20:36;;;;;;;45.10;17.80;;;;;;;;;;5058516;28;20373;-96
2021/12/15 01:23:07;;;;;;;51.40;18.33;;;;;;;;;;5054967;28;20116;-96
2021/12/15 01:25:34;;;;;;;49.53;17.37;;;;;;;;;;5055616;28;20021;-96
2021/12/15 01:27:59;;;;;;;51.53;18.17;;;;;;;;;;5055198;28;20024;-96
2021/12/15 01:30:27;;;;;;;47.70;18.20;;;;;;;;;;5055805;28;20042;-96
2021/12/15 01:32:53;;;;;;;45.07;16.90;;;;;;;;;;5055545;28;20044;-96
2021/12/15 01:35:19;;;;;;;44.50;17.13;;;;;;;;;;5056264;28;20033;-96
2021/12/15 01:37:46;;;;;;;48.27;17.60;;;;;;;;;;5055305;28;20028;-96
2021/12/15 01:40:18;;;;;;;47.50;17.57;;;;;;;;;;5055389;28;20013;-96
2021/12/15 01:42:43;;;;;;;;;;;;;;;;;;5056379;28;20025;-96
2021/12/15 01:48:03;;;;;;;44.73;16.47;;;;;;;;;;5056743;28;20028;-96
2021/12/15 01:50:29;;;;;;;44.83;17.07;;;;;;;;;;5055761;28;20021;-96
2021/12/15 01:52:54;;;;;;;44.57;16.87;;;;;;;;;;5055213;28;20353;-96
2021/12/15 01:55:20;;;;;;;41.03;16.53;;;;;;;;;;5054953;28;20013;-96
2021/12/15 01:57:46;;;;;;;47.55;15.73;;;;;;;;;;5056112;28;20027;-96
2021/12/15 02:00:13;;;;;;;43.83;16.40;;;;;;;;;;5055777;28;20040;-96
2021/12/15 02:02:39;;;;;;;45.77;16.30;;;;;;;;;;5054113;28;20116;-96
2021/12/15 02:05:04;;;;;;;39.72;15.13;;;;;;;;;;5036322;28;20076;-96
2021/12/15 02:07:30;;;;;;;41.17;15.10;;;;;;;;;;5051514;28;20032;-96
2021/12/15 02:12:30;;;;;;;36.63;14.50;;;;;;;;;;5059453;28;20362;-96
2021/12/15 02:14:56;;;;;;;40.25;15.02;;;;;;;;;;5059098;28;20027;-96
2021/12/15 02:17:21;;;;;;;40.13;16.00;;;;;;;;;;5060103;28;20025;-96
2021/12/15 02:19:47;;;;;;;48.60;16.13;;;;;;;;;;5057723;28;20111;-96
2021/12/15 02:22:12;;;;;;;38.30;15.50;;;;;;;;;;5058126;28;20477;-96
2021/12/15 02:24:39;;;;;;;39.40;15.17;;;;;;;;;;5058266;28;20036;-96
2021/12/15 02:27:05;;;;;;;40.75;14.02;;;;;;;;;;5058064;28;20017;-96
2021/12/15 02:29:35;;;;;;;37.77;14.53;;;;;;;;;;5058849;28;20052;-96
2021/12/15 02:39:29;;;;;;;39.77;15.23;;;;;;;;;;5058894;28;20091;-96
2021/12/15 02:41:54;;;;;;;41.10;14.77;;;;;;;;;;5058663;28;20020;-96
2021/12/15 02:44:21;;;;;;;41.63;15.53;;;;;;;;;;5058188;28;20040;-96
2021/12/15 02:46:48;;;;;;;42.00;15.20;;;;;;;;;;5057606;28;20017;-96
2021/12/15 02:49:15;;;;;;;38.40;16.57;;;;;;;;;;5057274;28;20021;-96
2021/12/15 02:51:41;;;;;;;43.00;16.40;;;;;;;;;;5057431;28;20032;-96
2021/12/15 02:54:07;;;;;;;41.57;16.20;;;;;;;;;;5059046;28;20032;-96
2021/12/15 02:56:32;;;;;;;42.70;15.80;;;;;;;;;;5058043;28;20438;-96
2021/12/15 02:59:04;;;;;;;40.83;15.43;;;;;;;;;;5058340;28;20066;-95
2021/12/15 03:01:52;;;;;;;43.40;15.32;;;;;;;;;;5058724;28;20111;-96
2021/12/15 03:06:58;;;;;;;37.53;15.50;;;;;;;;;;5057878;28;20052;-96
2021/12/15 03:17:36;;;;;;;43.03;15.80;;;;;;;;;;5055306;28;20474;-96
2021/12/15 03:20:02;;;;;;;44.43;16.23;;;;;;;;;;5060313;28;20111;-96
2021/12/15 03:22:28;;;;;;;39.57;15.03;;;;;;;;;;5034861;28;20059;-96
2021/12/15 03:24:53;;;;;;;37.80;14.57;;;;;;;;;;5034703;28;20026;-96
2021/12/15 03:27:24;;;;;;;40.53;14.80;;;;;;;;;;5034927;28;20063;-96
2021/12/15 03:35:33;;;;;;;39.28;14.27;;;;;;;;;;5036003;28;20032;-96
2021/12/15 03:37:58;;;;;;;39.30;14.30;;;;;;;;;;5034596;28;20033;-96
2021/12/15 03:40:26;;;;;;;37.58;14.40;;;;;;;;;;5039241;28;20021;-96
2021/12/15 03:42:53;;;;;;;43.37;14.37;;;;;;;;;;5054561;28;20116;-96
2021/12/15 03:45:21;;;;;;;40.07;14.40;;;;;;;;;;5054729;28;20033;-96
2021/12/15 03:47:49;;;;;;;39.53;14.93;;;;;;;;;;5056160;28;20051;-96
2021/12/15 03:50:15;;;;;;;38.63;14.93;;;;;;;;;;5056942;28;20024;-96
2021/12/15 03:52:41;;;;;;;39.20;14.07;;;;;;;;;;5056453;28;20036;-96
2021/12/15 03:55:07;;;;;;;39.53;13.80;;;;;;;;;;5057261;28;20035;-96
2021/12/15 03:57:32;;;;;;;40.63;14.40;;;;;;;;;;5058097;28;20045;-96
2021/12/15 03:59:58;;;;;;;35.67;14.55;;;;;;;;;;5055241;28;20025;-96
2021/12/15 04:02:23;;;;;;;45.77;15.40;;;;;;;;;;5054214;28;20043;-96
2021/12/15 04:04:49;;;;;;;37.75;14.93;;;;;;;;;;5054230;28;20025;-96
2021/12/15 04:07:16;;;;;;;42.38;14.32;;;;;;;;;;5054821;28;20043;-96
2021/12/15 04:09:42;;;;;;;44.50;15.67;;;;;;;;;;5054012;28;20461;-96
2021/12/15 04:12:07;;;;;;;43.10;14.53;;;;;;;;;;5054290;28;20078;-96
2021/12/15 04:14:42;;;;;;;51.60;16.02;;;;;;;;;;5053898;28;20033;-96
2021/12/15 04:17:18;;;;;;;44.45;15.30;;;;;;;;;;5054147;28;20104;-96
2021/12/15 04:19:43;;;;;;;38.00;14.93;;;;;;;;;;5054181;28;20017;-96
2021/12/15 04:22:09;;;;;;;43.80;14.50;;;;;;;;;;5054182;28;20124;-96
2021/12/15 04:24:34;;;;;;;40.37;15.73;;;;;;;;;;5053963;28;20052;-96
2021/12/15 04:26:59;;;;;;;42.28;15.70;;;;;;;;;;5055796;28;20060;-96
2021/12/15 04:29:27;;;;;;;41.37;14.90;;;;;;;;;;5056146;28;20464;-96
2021/12/15 04:32:14;;;;;;;43.70;15.03;;;;;;;;;;5055641;28;20035;-96
2021/12/15 04:34:40;;;;;;;45.40;16.50;;;;;;;;;;5056097;28;20029;-96
2021/12/15 04:37:05;;;;;;;41.72;14.75;;;;;;;;;;5055209;28;20051;-96
2021/12/15 04:39:30;;;;;;;40.60;13.87;;;;;;;;;;5057737;28;20041;-96
2021/12/15 04:41:57;;;;;;;41.08;15.63;;;;;;;;;;5055984;28;20021;-95
2021/12/15 04:44:24;;;;;;;42.23;15.13;;;;;;;;;;5053625;28;20073;-96
2021/12/15 04:47:03;;;;;;;40.53;14.73;;;;;;;;;;5053394;28;20081;-96
2021/12/15 04:49:30;;;;;;;41.93;15.00;;;;;;;;;;5053317;28;20469;-95
2021/12/15 04:51:56;;;;;;;38.60;14.53;;;;;;;;;;5053283;28;20024;-96
2021/12/15 04:54:21;;;;;;;44.53;15.43;;;;;;;;;;5053214;28;20338;-96
2021/12/15 04:56:46;;;;;;;38.40;15.55;;;;;;;;;;5053263;28;20491;-96
2021/12/15 04:59:12;;;;;;;37.10;14.00;;;;;;;;;;5053162;28;20017;-96
2021/12/15 05:01:37;;;;;;;40.77;15.63;;;;;;;;;;5053264;28;20056;-96
2021/12/15 05:04:03;;;;;;;41.83;14.33;;;;;;;;;;5058163;28;20533;-96
2021/12/15 05:06:28;;;;;;;35.17;12.30;;;;;;;;;;5073180;28;20583;-96
2021/12/15 05:08:55;;;;;;;35.17;13.93;;;;;;;;;;5073106;28;20020;-96
2021/12/15 05:11:20;;;;;;;37.42;13.65;;;;;;;;;;5073235;28;20029;-96
2021/12/15 05:13:45;;;;;;;36.83;12.90;;;;;;;;;;5072984;28;20089;-96
2021/12/15 05:16:11;;;;;;;37.60;13.73;;;;;;;;;;5073059;28;20035;-96
2021/12/15 05:18:36;;;;;;;46.07;14.63;;;;;;;;;;5072966;28;20024;-96
2021/12/15 05:21:02;;;;;;;37.80;14.57;;;;;;;;;;5072982;28;20063;-96
2021/12/15 05:23:30;;;;;;;38.70;13.80;;;;;;;;;;5072965;28;20020;-96
2021/12/15 05:25:56;;;;;;;34.78;13.70;;;;;;;;;;5072787;28;20029;-96
2021/12/15 05:28:21;;;;;;;35.55;13.85;;;;;;;;;;5072845;28;20021;-96
2021/12/15 05:30:46;;;;;;;34.78;13.00;;;;;;;;;;5064003;28;20439;-96
2021/12/15 05:33:12;;;;;;;32.90;12.98;;;;;;;;;;5052545;28;20049;-96
2021/12/15 05:35:37;;;;;;;37.80;13.05;;;;;;;;;;5052866;28;20032;-96
2021/12/15 05:38:03;;;;;;;38.05;13.57;;;;;;;;;;5086544;28;20388;-96
2021/12/15 05:40:30;;;;;;;34.45;13.70;;;;;;;;;;5053342;28;20072;-96
2021/12/15 05:42:56;;;;;;;34.83;14.20;;;;;;;;;;5056685;28;20029;-96
2021/12/15 05:45:26;;;;;;;35.70;13.15;;;;;;;;;;5056795;28;20021;-96
2021/12/15 05:47:52;;;;;;;31.83;12.90;;;;;;;;;;5090222;28;20115;-96
2021/12/15 05:50:17;;;;;;;31.83;12.13;;;;;;;;;;5056728;28;20483;-96
2021/12/15 05:52:42;;;;;;;27.73;11.63;;;;;;;;;;5056462;28;20028;-96
2021/12/15 05:55:09;;;;;;;30.27;12.13;;;;;;;;;;5056420;28;20021;-96
2021/12/15 05:57:34;;;;;;;30.38;12.10;;;;;;;;;;5056723;28;20358;-95
2021/12/15 06:00:00;;;;;;;27.60;12.45;;;;;;;;;;5066815;28;20027;-96
2021/12/15 06:02:25;;;;;;;32.67;12.73;;;;;;;;;;5058760;28;20025;-95
2021/12/15 06:04:51;;;;;;;30.35;11.27;;;;;;;;;;5057370;28;20534;-96
2021/12/15 06:07:16;;;;;;;27.65;11.88;;;;;;;;;;5057679;28;20013;-96
2021/12/15 06:09:41;;;;;;;31.50;12.85;;;;;;;;;;5057242;28;20025;-96
2021/12/15 06:12:07;;;;;;;40.47;17.05;;;;;;;;;;5058416;28;20028;-96
2021/12/15 06:14:34;;;;;;;45.13;17.15;;;;;;;;;;5057087;28;20021;-96
2021/12/15 06:17:17;;;;;;;31.80;13.83;;;;;;;;;;5057213;28;20021;-95
2021/12/15 06:19:43;;;;;;;36.58;13.10;;;;;;;;;;5057296;28;20021;-96
2021/12/15 06:22:10;;;;;;;32.83;12.65;;;;;;;;;;5057002;28;20020;-96
2021/12/15 06:24:36;;;;;;;34.20;12.18;;;;;;;;;;5057100;28;20035;-96
2021/12/15 06:27:09;;;;;;;36.15;14.15;;;;;;;;;;5056777;28;20105;-96
2021/12/15 06:29:34;;;;;;;36.80;12.95;;;;;;;;;;5057165;28;20025;-96
2021/12/15 06:31:59;;;;;;;47.95;15.40;;;;;;;;;;5057992;28;20017;-96
2021/12/15 06:34:24;;;;;;;38.80;14.03;;;;;;;;;;5056243;28;20031;-96
2021/12/15 06:36:50;;;;;;;34.40;13.35;;;;;;;;;;5056738;28;20063;-96
2021/12/15 06:39:15;;;;;;;36.10;13.23;;;;;;;;;;5056689;28;20025;-96
2021/12/15 06:41:41;;;;;;;38.60;13.80;;;;;;;;;;5056538;28;20013;-96
2021/12/15 06:44:06;;;;;;;31.38;12.98;;;;;;;;;;5055852;28;20046;-96
2021/12/15 06:59:59;;;;;;;37.67;15.20;;;;;;;;;;5077791;28;20025;-95
2021/12/15 07:02:25;;;;;;;37.10;13.90;;;;;;;;;;5076442;28;20455;-96
2021/12/15 07:04:50;;;;;;;42.00;14.93;;;;;;;;;;5077032;28;20068;-96
2021/12/15 07:07:15;;;;;;;42.67;14.68;;;;;;;;;;5076475;28;20111;-96
2021/12/15 07:09:41;;;;;;;38.03;14.55;;;;;;;;;;5075121;28;20024;-96
2021/12/15 07:12:06;;;;;;;36.97;14.70;;;;;;;;;;5075118;28;20058;-96
2021/12/15 07:14:32;;;;;;;43.53;15.80;;;;;;;;;;5075055;28;20111;-96
2021/12/15 07:16:58;;;;;;;39.65;15.32;;;;;;;;;;5075107;28;20065;-96
2021/12/15 07:22:08;;;;;;;41.03;15.90;;;;;;;;;;5063903;28;20017;-96
2021/12/15 07:24:34;;;;;;;47.38;16.33;;;;;;;;;;5058927;28;20476;-96
2021/12/15 07:27:00;;;;;;;44.63;15.55;;;;;;;;;;5059081;28;20044;-96
2021/12/15 07:29:26;;;;;;;42.83;15.98;;;;;;;;;;5059085;28;20392;-96
2021/12/15 07:31:51;;;;;;;37.75;15.70;;;;;;;;;;5055737;28;20025;-96
2021/12/15 07:34:16;;;;;;;38.60;14.88;;;;;;;;;;5055878;28;20029;-93
2021/12/15 07:36:42;;;;;;;40.58;14.82;;;;;;;;;;5054912;28;20016;-96
2021/12/15 07:39:10;;;;;;;41.70;15.85;;;;;;;;;;5061270;28;20009;-95
2021/12/15 07:41:42;;;;;;;39.83;15.02;;;;;;;;;;5054568;28;20021;-95
2021/12/15 07:44:07;;;;;;;47.03;15.73;;;;;;;;;;5058328;28;20443;-96
2021/12/15 07:46:32;;;;;;;43.53;15.13;;;;;;;;;;5068171;28;20056;-95
2021/12/15 07:48:57;;;;;;;39.33;14.53;;;;;;;;;;5053986;28;20087;-96
2021/12/15 07:51:23;;;;;;;38.83;14.82;;;;;;;;;;5070474;28;20070;-95
2021/12/15 07:53:48;;;;;;;37.63;14.60;;;;;;;;;;5074301;28;20092;-95
2021/12/15 07:56:14;;;;;;;36.40;14.20;;;;;;;;;;5056006;28;20020;-95
2021/12/15 07:58:39;;;;;;;35.80;14.23;;;;;;;;;;5058400;28;20110;-95
2021/12/15 08:01:05;;;;;;;36.58;14.57;;;;;;;;;;5054170;28;20206;-95
2021/12/15 08:03:31;;;;;;;39.20;15.53;;;;;;;;;;5052544;28;20086;-95
2021/12/15 08:05:57;;;;;;;38.00;14.27;;;;;;;;;;5079886;28;20025;-93
2021/12/15 08:08:22;;;;;;;37.40;14.65;;;;;;;;;;5056315;28;20070;-95
2021/12/15 08:10:47;;;;;;;37.78;14.43;;;;;;;;;;5051560;28;20052;-95
2021/12/15 08:13:15;;;;;;;35.17;14.47;;;;;;;;;;5052088;28;20029;-95
2021/12/15 08:15:40;;;;;;;36.75;15.20;;;;;;;;;;5054033;28;20025;-94
2021/12/15 08:18:06;;;;;;;34.03;14.70;;;;;;;;;;5053010;28;20031;-95
2021/12/15 08:20:32;;;;;;;37.08;14.50;;;;;;;;;;5052914;28;20079;-94
2021/12/15 08:22:57;;;;;;;33.60;14.38;;;;;;;;;;5052124;28;20104;-94
2021/12/15 08:25:23;;;;;;;37.13;14.40;;;;;;;;;;5055358;28;20074;-94
2021/12/15 08:27:49;;;;;;;32.00;14.25;;;;;;;;;;5060321;28;20464;-94
2021/12/15 08:30:19;;;;;;;39.53;14.57;;;;;;;;;;5053348;28;20388;-94
2021/12/15 08:32:44;;;;;;;36.25;14.73;;;;;;;;;;5053278;28;20052;-92
2021/12/15 08:35:10;;;;;;;33.20;13.18;;;;;;;;;;5057111;28;20021;-91
2021/12/15 08:37:35;;;;;;;34.25;13.52;;;;;;;;;;5056191;28;20056;-93
2021/12/15 08:40:00;;;;;;;33.40;13.52;;;;;;;;;;5058281;28;20102;-94
2021/12/15 08:42:26;;;;;;;32.10;13.38;;;;;;;;;;5053193;28;20020;-93
2021/12/15 08:44:51;;;;;;;35.13;14.23;;;;;;;;;;5052513;28;20025;-93
2021/12/15 08:47:16;;;;;;;33.55;14.25;;;;;;;;;;5054137;28;20017;-94
2021/12/15 08:49:41;;;;;;;29.90;14.45;;;;;;;;;;5057980;28;20024;-94
2021/12/15 08:52:07;;;;;;;32.90;14.05;;;;;;;;;;5064158;28;20427;-92
2021/12/15 08:54:32;;;;;;;31.20;14.15;;;;;;;;;;5055092;28;20029;-93
2021/12/15 08:56:57;;;;;;;36.63;14.33;;;;;;;;;;5076232;28;20021;-88
2021/12/15 08:59:23;;;;;;;38.05;14.43;;;;;;;;;;5052097;28;20516;-94
2021/12/15 09:01:49;;;;;;;35.47;14.02;;;;;;;;;;5053829;28;20052;-91
2021/12/15 09:04:15;;;;;;;36.67;14.15;;;;;;;;;;5052221;28;20066;-90
2021/12/15 09:06:40;;;;;;;34.97;14.18;;;;;;;;;;5052230;28;20482;-88
2021/12/15 09:09:11;;;;;;;37.40;14.53;;;;;;;;;;5060639;28;20039;-85
2021/12/15 09:11:36;;;;;;;35.03;13.33;;;;;;;;;;5032445;28;20028;-88
2021/12/15 09:14:03;;;;;;;35.30;14.45;;;;;;;;;;5039804;28;20389;-89
2021/12/15 09:16:32;;;;;;;38.08;14.80;;;;;;;;;;5053450;28;20009;-89
2021/12/15 09:18:58;;;;;;;40.17;14.63;;;;;;;;;;5055770;28;20017;-90
2021/12/15 09:21:24;;;;;;;31.40;12.85;;;;;;;;;;5056361;28;20021;-92
2021/12/15 09:23:50;;;;;;;42.30;14.43;;;;;;;;;;5071459;28;20025;-90
2021/12/15 09:26:15;;;;;;;32.80;13.95;;;;;;;;;;5055423;28;20039;-87
2021/12/15 09:28:41;;;;;;;36.92;14.90;;;;;;;;;;5056696;28;20021;-85
2021/12/15 09:31:06;;;;;;;37.63;14.68;;;;;;;;;;5060392;28;20017;-90
2021/12/15 09:33:41;;;;;;;35.40;14.73;;;;;;;;;;5055187;28;20078;-93
2021/12/15 09:36:12;;;;;;;37.15;16.13;;;;;;;;;;5056689;28;20017;-93
2021/12/15 09:38:37;;;;;;;39.35;16.90;;;;;;;;;;5055721;28;20071;-91
2021/12/15 09:41:03;;;;;;;40.83;15.30;;;;;;;;;;5056125;28;20024;-93
2021/12/15 09:43:31;;;;;;;36.92;14.57;;;;;;;;;;5057523;28;20043;-91
2021/12/15 09:46:08;;;;;;;36.38;14.77;;;;;;;;;;5063462;28;20443;-90
2021/12/15 10:18:27;;;;;;;41.60;16.08;;;;;;;;;;5059799;28;20067;-87
2021/12/15 10:20:53;;;;;;;38.72;15.68;;;;;;;;;;5054897;28;20025;-91
2021/12/15 10:23:25;;;;;;;41.45;16.65;;;;;;;;;;5053472;28;20697;-90
2021/12/15 10:25:54;;;;;;;37.10;17.23;;;;;;;;;;5051262;28;20673;-88
2021/12/15 10:28:21;;;;;;;41.90;16.63;;;;;;;;;;5054148;28;20447;-90
2021/12/15 10:30:48;;;;;;;40.17;17.63;;;;;;;;;;5054729;28;20009;-91
2021/12/15 10:33:13;;;;;;;40.85;16.83;;;;;;;;;;5054748;28;20024;-89
2021/12/15 10:35:43;;;;;;;48.00;17.80;;;;;;;;;;5061907;28;20389;-93
2021/12/15 10:38:18;;;;;;;38.67;16.23;;;;;;;;;;5056031;28;20062;-88
2021/12/15 10:40:52;;;;;;;39.08;17.70;;;;;;;;;;5054078;28;20413;-89
2021/12/15 10:43:17;;;;;;;43.25;18.63;;;;;;;;;;5053525;28;20024;-90
2021/12/15 10:45:45;;;;;;;40.88;16.58;;;;;;;;;;5055653;28;20017;-92
2021/12/15 10:48:20;;;;;;;40.63;16.98;;;;;;;;;;5056714;28;20024;-91
2021/12/15 10:50:47;;;;;;;41.38;18.33;;;;;;;;;;5053730;28;20021;-88
2021/12/15 10:53:12;;;;;;;41.65;17.95;;;;;;;;;;5052531;28;20017;-88
2021/12/15 10:55:38;;;;;;;38.90;17.65;;;;;;;;;;5054552;28;20025;-88
2021/12/15 10:58:22;;;;;;;37.55;16.80;;;;;;;;;;5080430;28;20461;-90
2021/12/15 11:00:47;;;;;;;36.40;16.73;;;;;;;;;;5068434;28;20100;-87
2021/12/15 11:03:16;;;;;;;40.47;18.20;;;;;;;;;;5065857;28;20439;-86
2021/12/15 11:05:42;;;;;;;48.70;19.70;;;;;;;;;;5066293;28;20118;-87
2021/12/15 11:08:07;;;;;;;41.15;18.38;;;;;;;;;;5063525;28;20464;-87
2021/12/15 11:10:34;;;;;;;43.10;17.45;;;;;;;;;;5054689;28;20020;-88
2021/12/15 11:13:10;;;;;;;39.42;17.95;;;;;;;;;;5053176;28;20492;-87
2021/12/15 11:15:41;;;;;;;36.47;18.10;;;;;;;;;;5054565;28;20028;-87
2021/12/15 11:18:12;;;;;;;39.55;17.52;;;;;;;;;;5052512;28;20044;-87
2021/12/15 11:20:48;;;;;;;42.25;17.42;;;;;;;;;;5053434;28;20095;-88
2021/12/15 11:23:13;;;;;;;39.30;18.85;;;;;;;;;;5052803;28;20017;-87
2021/12/15 11:25:40;;;;;;;37.70;16.75;;;;;;;;;;5060513;28;20554;-87
2021/12/15 11:28:22;;;;;;;43.85;18.77;;;;;;;;;;5057787;28;20052;-87
2021/12/15 11:30:56;;;;;;;37.75;17.70;;;;;;;;;;5043347;28;20029;-87
2021/12/15 11:33:27;;;;;;;41.90;17.70;;;;;;;;;;5053386;28;20025;-87
2021/12/15 11:35:55;;;;;;;37.85;17.73;;;;;;;;;;5046812;28;20025;-88
2021/12/15 11:38:23;;;;;;;41.10;17.90;;;;;;;;;;5052500;28;20021;-87
2021/12/15 11:41:01;;;;;;;38.70;17.80;;;;;;;;;;5061406;28;20032;-88
2021/12/15 11:43:38;;;;;;;39.42;18.42;;;;;;;;;;5075542;28;20044;-88
2021/12/15 11:46:15;;;;;;;36.00;17.70;;;;;;;;;;5058365;28;20017;-87
2021/12/15 11:48:40;;;;;;;37.22;17.80;;;;;;;;;;5053028;28;20070;-88
2021/12/15 11:51:06;;;;;;;48.50;18.63;;;;;;;;;;5052626;28;21653;-88
2021/12/15 11:53:31;;;;;;;44.35;19.17;;;;;;;;;;5052099;28;20372;-87
2021/12/15 11:56:15;;;;;;;39.70;18.33;;;;;;;;;;5048557;28;20017;-88
2021/12/15 11:58:41;;;;;;;36.08;16.83;;;;;;;;;;5066605;28;20028;-91
2021/12/15 12:01:08;;;;;;;39.00;18.73;;;;;;;;;;5060616;28;20103;-91
2021/12/15 12:03:33;;;;;;;40.92;17.48;;;;;;;;;;5053417;28;20429;-91
2021/12/15 12:05:58;;;;;;;43.65;19.65;;;;;;;;;;5054354;28;20049;-91
2021/12/15 12:08:24;;;;;;;40.42;18.85;;;;;;;;;;5052710;28;20024;-92
2021/12/15 12:10:51;;;;;;;38.25;17.48;;;;;;;;;;5052868;28;20481;-91
2021/12/15 12:13:24;;;;;;;33.70;17.15;;;;;;;;;;5053087;28;20526;-91
2021/12/15 12:15:52;;;;;;;38.00;18.85;;;;;;;;;;5053040;28;20017;-92
2021/12/15 12:18:20;;;;;;;39.88;17.60;;;;;;;;;;5053263;28;20028;-92
2021/12/15 12:20:47;;;;;;;42.03;16.63;;;;;;;;;;5053049;28;20021;-91
2021/12/15 12:23:14;;;;;;;39.47;18.73;;;;;;;;;;5052719;28;20029;-91
2021/12/15 12:25:41;;;;;;;44.10;19.30;;;;;;;;;;5052632;28;20024;-91
2021/12/15 12:28:09;;;;;;;42.97;17.60;;;;;;;;;;5052543;28;20031;-91
2021/12/15 12:30:39;;;;;;;37.03;15.73;;;;;;;;;;5052199;28;20516;-91
2021/12/15 12:33:08;;;;;;;38.90;16.95;;;;;;;;;;5062934;28;20047;-91
2021/12/15 12:35:34;;;;;;;36.40;16.55;;;;;;;;;;5066984;28;20138;-91
2021/12/15 12:38:01;;;;;;;36.75;17.95;;;;;;;;;;5043807;28;20033;-91
2021/12/15 12:40:29;;;;;;;33.90;17.25;;;;;;;;;;5052357;28;20472;-91
2021/12/15 12:42:54;;;;;;;39.10;18.42;;;;;;;;;;5052085;28;20088;-91
2021/12/15 12:45:24;;;;;;;40.47;17.90;;;;;;;;;;5052098;28;20108;-92
2021/12/15 12:48:07;;;;;;;35.35;16.08;;;;;;;;;;5052371;28;20078;-91
2021/12/15 13:01:15;;;;;;;35.40;16.40;;;;;;;;;;5034042;28;20021;-93
2021/12/15 13:03:48;;;;;;;36.63;17.13;;;;;;;;;;5045041;28;20117;-90
2021/12/15 13:06:14;;;;;;;37.85;16.92;;;;;;;;;;5052252;28;20021;-91
2021/12/15 13:08:41;;;;;;;34.33;16.48;;;;;;;;;;5053463;28;20016;-92
2021/12/15 13:11:19;;;;;;;33.88;16.17;;;;;;;;;;5051961;28;20013;-91
2021/12/15 13:14:03;;;;;;;34.90;16.27;;;;;;;;;;5038571;28;20021;-92
2021/12/15 13:16:50;;;;;;;34.33;15.43;;;;;;;;;;5052232;28;20017;-90
2021/12/15 13:19:17;;;;;;;31.35;14.82;;;;;;;;;;5052156;28;20447;-91
2021/12/15 13:21:51;;;;;;;33.00;16.27;;;;;;;;;;5051548;28;20013;-90
2021/12/15 13:28:42;;;;;;;34.90;15.52;;;;;;;;;;5052391;28;20025;-90
2021/12/15 13:30:06;;;;;;;31.75;15.82;;;;;;;;;;5059846;28;20515;-91
2021/12/15 13:32:37;;;;;;;32.92;15.77;;;;;;;;;;5052510;28;20017;-92
2021/12/15 13:35:02;;;;;;;31.08;15.93;;;;;;;;;;5052237;28;20025;-92
2021/12/15 13:37:46;;;;;;;30.65;17.00;;;;;;;;;;5051981;28;20027;-91
2021/12/15 13:40:12;;;;;;;34.70;15.52;;;;;;;;;;5052077;28;20021;-91
2021/12/15 13:42:41;;;;;;;31.10;14.43;;;;;;;;;;5052037;28;20025;-92
2021/12/15 13:45:24;;;;;;;35.45;14.98;;;;;;;;;;5051867;28;20064;-91
2021/12/15 13:47:49;;;;;;;31.52;16.40;;;;;;;;;;5038203;28;20032;-91
2021/12/15 13:50:19;;;;;;;34.50;15.63;;;;;;;;;;5051771;28;20021;-91
2021/12/15 13:52:45;;;;;;;30.13;15.30;;;;;;;;;;5051627;28;20167;-91
2021/12/15 13:55:30;;;;;;;35.25;15.30;;;;;;;;;;5052511;28;20060;-91
2021/12/15 13:57:55;;;;;;;32.13;15.02;;;;;;;;;;5047085;28;20036;-91
2021/12/15 14:00:22;;;;;;;37.97;16.48;;;;;;;;;;5047984;28;20012;-91
2021/12/15 14:03:06;;;;;;;31.48;15.23;;;;;;;;;;5054881;28;20112;-92
2021/12/15 14:05:54;;;;;;;39.08;15.63;;;;;;;;;;5061376;28;20028;-90
2021/12/15 14:08:28;;;;;;;30.10;14.82;;;;;;;;;;5042956;28;20036;-90
2021/12/15 14:11:17;;;;;;;32.85;15.70;;;;;;;;;;5057591;28;20040;-91
2021/12/15 14:13:44;;;;;;;28.80;15.65;;;;;;;;;;5055311;28;20035;-90
2021/12/15 14:16:09;;;;;;;35.10;15.65;;;;;;;;;;5054302;28;20024;-93
2021/12/15 14:18:34;;;;;;;34.35;14.98;;;;;;;;;;5055241;28;20025;-92
2021/12/15 14:21:05;;;;;;;31.30;15.43;;;;;;;;;;5055631;28;20025;-90
2021/12/15 14:23:42;;;;;;;33.63;16.05;;;;;;;;;;5054921;28;20084;-89
2021/12/15 14:26:09;;;;;;;32.78;17.48;;;;;;;;;;5052694;28;20456;-92
2021/12/15 14:28:46;;;;;;;33.28;15.80;;;;;;;;;;5055473;28;20017;-91
2021/12/15 14:31:16;;;;;;;38.45;16.85;;;;;;;;;;5055184;28;20021;-92
2021/12/15 14:33:43;;;;;;;34.03;16.88;;;;;;;;;;5070732;28;20074;-91
2021/12/15 14:36:13;;;;;;;32.40;15.15;;;;;;;;;;5059360;28;20032;-91
2021/12/15 14:38:46;;;;;;;38.20;18.20;;;;;;;;;;5053075;28;20043;-91
2021/12/15 14:41:17;;;;;;;40.55;17.83;;;;;;;;;;5072778;28;20024;-90
2021/12/15 14:43:46;;;;;;;36.95;17.67;;;;;;;;;;5054920;28;20020;-92
2021/12/15 14:46:19;;;;;;;37.63;16.33;;;;;;;;;;5053961;28;20519;-91
2021/12/15 14:48:44;;;;;;;34.65;17.48;;;;;;;;;;5054818;28;20052;-91
2021/12/15 14:51:10;;;;;;;35.58;16.05;;;;;;;;;;5054859;28;20032;-90
2021/12/15 14:53:39;;;;;;;35.60;17.67;;;;;;;;;;5058099;28;20052;-90
2021/12/15 14:56:05;;;;;;;38.95;17.30;;;;;;;;;;5087676;28;20020;-91
2021/12/15 14:58:30;;;;;;;39.83;18.90;;;;;;;;;;5054277;28;20040;-92
2021/12/15 15:00:55;;;;;;;40.13;18.25;;;;;;;;;;5049403;28;20123;-92
2021/12/15 15:03:20;;;;;;;39.92;19.55;;;;;;;;;;5053676;28;20096;-95
2021/12/15 15:05:47;;;;;;;41.00;18.63;;;;;;;;;;5056060;28;20024;-91
2021/12/15 15:08:26;;;;;;;37.05;17.73;;;;;;;;;;5054399;28;20025;-91
2021/12/15 15:10:52;;;;;;;37.90;18.27;;;;;;;;;;5054287;28;20036;-91
2021/12/15 15:13:19;;;;;;;35.47;17.88;;;;;;;;;;5053577;28;20017;-90
2021/12/15 15:15:47;;;;;;;38.75;18.70;;;;;;;;;;5070485;28;20059;-91
2021/12/15 15:18:25;;;;;;;42.70;18.40;;;;;;;;;;5056073;28;20028;-91
2021/12/15 15:21:01;;;;;;;37.38;18.35;;;;;;;;;;5060966;28;20017;-92
2021/12/15 15:23:29;;;;;;;37.80;18.67;;;;;;;;;;5054129;28;20021;-91
2021/12/15 15:25:57;;;;;;;40.17;17.92;;;;;;;;;;5053987;28;20045;-92
2021/12/15 15:28:28;;;;;;;38.20;18.65;;;;;;;;;;5054095;28;20461;-92
2021/12/15 15:30:55;;;;;;;41.38;19.05;;;;;;;;;;5065135;28;20028;-91
2021/12/15 15:33:23;;;;;;;42.67;18.35;;;;;;;;;;5067651;28;20075;-91
2021/12/15 15:35:50;;;;;;;41.03;18.60;;;;;;;;;;5038698;28;20119;-90
2021/12/15 15:38:18;;;;;;;40.33;17.65;;;;;;;;;;5053744;28;20130;-90
2021/12/15 15:40:54;;;;;;;43.58;18.15;;;;;;;;;;5055132;28;20021;-92
2021/12/15 15:43:22;;;;;;;45.45;19.13;;;;;;;;;;5053762;28;20060;-93
2021/12/15 15:45:52;;;;;;;40.47;18.73;;;;;;;;;;5053774;28;20024;-91
2021/12/15 15:48:19;;;;;;;40.58;19.02;;;;;;;;;;5045992;28;20029;-91
2021/12/15 15:50:46;;;;;;;42.80;20.02;;;;;;;;;;5051364;28;20405;-91
2021/12/15 15:53:12;;;;;;;37.75;18.27;;;;;;;;;;5054265;28;20583;-91
2021/12/15 15:55:39;;;;;;;44.92;19.33;;;;;;;;;;5052896;28;20123;-92
2021/12/15 15:58:06;;;;;;;45.97;19.65;;;;;;;;;;5047493;28;20024;-93
2021/12/15 16:00:33;;;;;;;41.95;19.38;;;;;;;;;;5059269;28;20025;-93